createdAt,value
2022-12-16T00:00:44.349Z,93898.1
2022-12-16T00:01:47.202Z,93899.1
2022-12-16T00:02:50.078Z,93896.6
2022-12-16T00:04:58.630Z,93893.5
2022-12-16T00:06:00.831Z,93888.9
2022-12-16T00:07:03.356Z,93890.7
2022-12-16T00:08:05.637Z,93892.8
2022-12-16T00:09:07.557Z,93886.5
2022-12-16T00:10:10.682Z,93890.8
2022-12-16T00:11:13.169Z,93890.9
2022-12-16T00:12:15.653Z,93887.5
2022-12-16T00:13:17.854Z,93891.2
2022-12-16T00:14:20.369Z,93888.1
2022-12-16T00:15:22.585Z,93890.7
2022-12-16T00:16:25.144Z,93889.1
2022-12-16T00:17:27.744Z,93887.6
2022-12-16T00:18:30.255Z,93884.3
2022-12-16T00:19:32.191Z,93889.9
2022-12-16T00:20:34.115Z,93888.5
2022-12-16T00:21:36.326Z,93893.9
2022-12-16T00:22:38.549Z,93892.4
2022-12-16T00:23:40.734Z,93894.9
2022-12-16T00:24:42.926Z,93893.8
2022-12-16T00:25:45.412Z,93891.8
2022-12-16T00:26:47.607Z,93890.5
2022-12-16T00:28:56.117Z,93893.3
2022-12-16T00:29:58.642Z,93889.4
2022-12-16T00:31:01.132Z,93889.9
2022-12-16T00:32:04.161Z,93885.3
2022-12-16T00:33:06.538Z,93889.2
2022-12-16T00:34:09.393Z,93886.7
2022-12-16T00:35:11.655Z,93886.3
2022-12-16T00:36:13.848Z,93884.5
2022-12-16T00:37:16.333Z,93886.1
2022-12-16T00:38:18.305Z,93883.7
2022-12-16T00:39:20.788Z,93887
2022-12-16T00:40:23.265Z,93884.4
2022-12-16T00:41:25.776Z,93885.7
2022-12-16T00:42:27.974Z,93885.3
2022-12-16T00:43:31.635Z,93884.8
2022-12-16T00:44:35.294Z,93884
2022-12-16T00:45:38.104Z,93881.6
2022-12-16T00:46:40.653Z,93888.9
2022-12-16T00:48:47.879Z,93889.9
2022-12-16T00:49:50.122Z,93890.4
2022-12-16T00:51:58.872Z,93888.2
2022-12-16T00:53:01.345Z,93894.7
2022-12-16T00:54:03.590Z,93893.2
2022-12-16T00:55:06.069Z,93896.3
2022-12-16T00:56:09.019Z,93894.2
2022-12-16T00:57:11.208Z,93894.8
2022-12-16T00:58:13.412Z,93897.7
2022-12-16T00:59:15.614Z,93897.5
2022-12-16T01:00:17.561Z,93900.3
2022-12-16T01:01:20.648Z,93901.7
2022-12-16T01:02:24.123Z,93904.7
2022-12-16T01:03:27.159Z,93913.6
2022-12-16T01:04:29.959Z,93915.4
2022-12-16T01:05:32.453Z,93911.4
2022-12-16T01:06:34.675Z,93914.5
2022-12-16T01:07:36.894Z,93918.8
2022-12-16T01:08:38.832Z,93920.7
2022-12-16T01:09:41.050Z,93924.6
2022-12-16T01:10:43.267Z,93924.3
2022-12-16T01:11:45.735Z,93925.4
2022-12-16T01:12:47.685Z,93930.1
2022-12-16T01:13:49.882Z,93933.4
2022-12-16T01:14:55.412Z,93935.3
2022-12-16T01:15:58.229Z,93937.4
2022-12-16T01:17:00.875Z,93933.4
2022-12-16T01:18:03.070Z,93931.4
2022-12-16T01:19:05.269Z,93935.5
2022-12-16T01:20:07.765Z,93940.7
2022-12-16T01:21:10.269Z,93937.7
2022-12-16T01:22:12.497Z,93936.7
2022-12-16T01:23:14.753Z,93938.5
2022-12-16T01:24:17.292Z,93938.4
2022-12-16T01:25:19.830Z,93937.2
2022-12-16T01:26:22.311Z,93937.4
2022-12-16T01:27:24.797Z,93934.8
2022-12-16T01:28:26.998Z,93936.8
2022-12-16T01:29:29.473Z,93937.6
2022-12-16T01:30:31.670Z,93943.5
2022-12-16T01:31:34.550Z,93938.7
2022-12-16T01:32:36.883Z,93946
2022-12-16T01:33:39.074Z,93944.4
2022-12-16T01:34:41.545Z,93947.1
2022-12-16T01:36:49.040Z,93948.9
2022-12-16T01:37:52.183Z,93944.4
2022-12-16T01:38:58.368Z,93947.6
2022-12-16T01:40:00.871Z,93951.1
2022-12-16T01:41:03.109Z,93950.5
2022-12-16T01:42:05.013Z,93951.3
2022-12-16T01:43:07.226Z,93950.3
2022-12-16T01:44:10.546Z,93946.6
2022-12-16T01:45:13.024Z,93949.5
2022-12-16T01:46:15.018Z,93951.6
2022-12-16T01:47:17.305Z,93946.1
2022-12-16T01:48:19.578Z,93948.9
2022-12-16T01:49:22.001Z,93949.4
2022-12-16T01:50:24.208Z,93950.5
2022-12-16T01:51:26.410Z,93952.9
2022-12-16T01:52:28.908Z,93952.9
2022-12-16T01:53:33.460Z,93948.6
2022-12-16T01:54:36.636Z,93947.4
2022-12-16T01:55:38.845Z,93943.8
2022-12-16T01:56:41.409Z,93943.1
2022-12-16T01:57:43.343Z,93942.4
2022-12-16T01:58:45.559Z,93943.1
2022-12-16T01:59:48.056Z,93938.2
2022-12-16T02:00:51.573Z,93933.3
2022-12-16T02:01:59.716Z,93934
2022-12-16T02:03:02.689Z,93943.4
2022-12-16T02:04:05.397Z,93941.8
2022-12-16T02:05:07.640Z,93940.5
2022-12-16T02:06:10.163Z,93942.8
2022-12-16T02:07:12.645Z,93939.7
2022-12-16T02:08:15.152Z,93942.3
2022-12-16T02:09:17.374Z,93947.3
2022-12-16T02:10:19.954Z,93945
2022-12-16T02:11:22.428Z,93944.2
2022-12-16T02:12:24.957Z,93943.2
2022-12-16T02:13:27.191Z,93948
2022-12-16T02:14:29.677Z,93944.3
2022-12-16T02:15:31.886Z,93944.1
2022-12-16T02:16:34.453Z,93944.7
2022-12-16T02:17:36.735Z,93945.5
2022-12-16T02:18:39.214Z,93949.8
2022-12-16T02:19:41.784Z,93946.1
2022-12-16T02:20:44.268Z,93950
2022-12-16T02:21:46.738Z,93948.8
2022-12-16T02:22:49.246Z,93945.9
2022-12-16T02:23:53.814Z,93954.2
2022-12-16T02:24:57.383Z,93956.3
2022-12-16T02:25:59.299Z,93955.9
2022-12-16T02:27:01.508Z,93964.4
2022-12-16T02:28:03.423Z,93972
2022-12-16T02:29:05.630Z,93964.8
2022-12-16T02:30:08.904Z,93968.9
2022-12-16T02:31:11.802Z,93970
2022-12-16T02:32:14.146Z,93967.8
2022-12-16T02:33:16.329Z,93968.3
2022-12-16T02:34:18.802Z,93973.4
2022-12-16T02:35:21.357Z,93980.9
2022-12-16T02:36:23.594Z,93979.7
2022-12-16T02:37:26.079Z,93982
2022-12-16T02:38:28.272Z,93980.1
2022-12-16T02:39:30.496Z,93980.4
2022-12-16T02:40:32.982Z,93983
2022-12-16T02:41:35.187Z,93976.4
2022-12-16T02:42:37.661Z,93978.2
2022-12-16T02:43:40.172Z,93974.1
2022-12-16T02:44:42.644Z,93973.6
2022-12-16T02:45:45.043Z,93977.5
2022-12-16T02:46:47.634Z,93981.2
2022-12-16T02:47:50.119Z,93979.6
2022-12-16T02:48:52.303Z,93986.6
2022-12-16T02:49:54.801Z,93981.3
2022-12-16T02:50:57.315Z,93986.1
2022-12-16T02:51:59.516Z,93986.6
2022-12-16T02:53:01.723Z,93985.9
2022-12-16T02:54:04.209Z,93991.1
2022-12-16T02:55:06.467Z,93990.6
2022-12-16T02:56:08.949Z,93990.1
2022-12-16T02:57:11.437Z,93997.7
2022-12-16T02:58:13.630Z,94000.3
2022-12-16T02:59:15.876Z,93997.1
2022-12-16T03:00:18.066Z,93997.5
2022-12-16T03:01:20.895Z,94002.9
2022-12-16T03:02:24.622Z,93999.2
2022-12-16T03:03:27.757Z,93999.8
2022-12-16T03:04:30.400Z,94004.3
2022-12-16T03:05:32.918Z,94003.6
2022-12-16T03:06:35.448Z,94003.6
2022-12-16T03:07:37.939Z,94007.9
2022-12-16T03:08:40.140Z,94006.8
2022-12-16T03:09:42.668Z,94007.9
2022-12-16T03:10:45.165Z,94007
2022-12-16T03:11:47.664Z,94009.6
2022-12-16T03:12:50.145Z,94009.6
2022-12-16T03:13:52.054Z,94002.6
2022-12-16T03:14:54.556Z,94005.4
2022-12-16T03:15:56.779Z,94003.2
2022-12-16T03:16:59.664Z,94000.5
2022-12-16T03:18:02.329Z,94003.8
2022-12-16T03:19:04.504Z,94001.7
2022-12-16T03:20:06.998Z,94003
2022-12-16T03:21:09.197Z,94003
2022-12-16T03:22:11.742Z,94006
2022-12-16T03:23:13.374Z,94004.2
2022-12-16T03:24:15.663Z,94004.3
2022-12-16T03:25:18.141Z,94000.9
2022-12-16T03:26:20.373Z,93996.3
2022-12-16T03:27:22.876Z,93995.9
2022-12-16T03:28:25.089Z,93998.7
2022-12-16T03:29:27.562Z,93997.4
2022-12-16T03:30:30.340Z,93999.4
2022-12-16T03:31:32.344Z,94001.3
2022-12-16T03:32:34.274Z,94003.7
2022-12-16T03:33:36.923Z,94004.3
2022-12-16T03:34:39.405Z,94002.9
2022-12-16T03:35:41.332Z,94007
2022-12-16T03:36:43.817Z,94008.5
2022-12-16T03:37:46.061Z,94007
2022-12-16T03:38:48.558Z,94004.6
2022-12-16T03:39:51.038Z,94010.8
2022-12-16T03:41:58.543Z,94012.1
2022-12-16T03:43:01.083Z,94016
2022-12-16T03:44:03.563Z,94013.6
2022-12-16T03:45:06.042Z,94011.5
2022-12-16T03:46:08.926Z,94017.6
2022-12-16T03:47:11.566Z,94016
2022-12-16T03:48:13.779Z,94019.7
2022-12-16T03:49:16.261Z,94018.9
2022-12-16T03:50:18.742Z,94020.9
2022-12-16T03:51:21.243Z,94024.8
2022-12-16T03:52:23.727Z,94025.8
2022-12-16T03:53:25.954Z,94024.4
2022-12-16T03:54:28.459Z,94021.7
2022-12-16T03:55:30.923Z,94027.3
2022-12-16T03:56:33.129Z,94025.8
2022-12-16T03:57:35.679Z,94032.8
2022-12-16T03:58:38.187Z,94029.1
2022-12-16T03:59:40.374Z,94030
2022-12-16T04:00:42.606Z,94031.8
2022-12-16T04:01:45.588Z,94033.8
2022-12-16T04:02:48.589Z,94031
2022-12-16T04:03:51.689Z,94029.2
2022-12-16T04:04:54.255Z,94029.1
2022-12-16T04:05:56.594Z,94028.6
2022-12-16T04:06:59.090Z,94032.7
2022-12-16T04:08:03.806Z,94042.3
2022-12-16T04:09:06.348Z,94045.9
2022-12-16T04:10:08.817Z,94047
2022-12-16T04:11:11.299Z,94050.4
2022-12-16T04:12:13.783Z,94049.5
2022-12-16T04:13:15.721Z,94056.3
2022-12-16T04:14:18.253Z,94056.4
2022-12-16T04:15:19.901Z,94062
2022-12-16T04:16:22.342Z,94060.8
2022-12-16T04:17:25.145Z,94065.3
2022-12-16T04:18:27.616Z,94066
2022-12-16T04:19:29.848Z,94064.8
2022-12-16T04:20:32.315Z,94072.2
2022-12-16T04:21:34.536Z,94068.1
2022-12-16T04:22:37.018Z,94065.1
2022-12-16T04:23:39.236Z,94063.3
2022-12-16T04:24:41.747Z,94063.6
2022-12-16T04:25:43.734Z,94064
2022-12-16T04:26:46.252Z,94063.1
2022-12-16T04:27:48.819Z,94064.9
2022-12-16T04:28:51.042Z,94068.3
2022-12-16T04:29:53.544Z,94073.6
2022-12-16T04:30:57.435Z,94071.1
2022-12-16T04:31:59.181Z,94073.3
2022-12-16T04:33:01.696Z,94076.2
2022-12-16T04:34:03.907Z,94074.4
2022-12-16T04:35:06.442Z,94078.2
2022-12-16T04:36:08.655Z,94079.6
2022-12-16T04:37:11.134Z,94083.3
2022-12-16T04:38:13.618Z,94083.1
2022-12-16T04:39:15.849Z,94087.6
2022-12-16T04:40:18.093Z,94088.8
2022-12-16T04:41:21.476Z,94087.6
2022-12-16T04:42:24.624Z,94089.3
2022-12-16T04:43:27.745Z,94088
2022-12-16T04:44:30.693Z,94091.7
2022-12-16T04:45:33.266Z,94094.9
2022-12-16T04:46:35.815Z,94100.6
2022-12-16T04:47:38.264Z,94102.1
2022-12-16T04:48:40.505Z,94103.3
2022-12-16T04:49:42.419Z,94100.6
2022-12-16T04:50:44.900Z,94104.4
2022-12-16T04:51:47.397Z,94108.2
2022-12-16T04:52:49.613Z,94105
2022-12-16T04:53:51.838Z,94104.8
2022-12-16T04:54:54.031Z,94106.7
2022-12-16T04:57:01.615Z,94116.1
2022-12-16T04:58:03.830Z,94121.6
2022-12-16T04:59:06.326Z,94122.8
2022-12-16T05:00:08.561Z,94125.7
2022-12-16T05:01:11.413Z,94126.8
2022-12-16T05:02:14.884Z,94128.9
2022-12-16T05:03:17.813Z,94131
2022-12-16T05:04:20.431Z,94124.9
2022-12-16T05:05:22.964Z,94129.1
2022-12-16T05:06:25.183Z,94128.8
2022-12-16T05:07:27.136Z,94127.8
2022-12-16T05:08:30.970Z,94125.8
2022-12-16T05:09:33.452Z,94127.7
2022-12-16T05:10:35.659Z,94136
2022-12-16T05:11:38.147Z,94131.4
2022-12-16T05:12:40.389Z,94135.9
2022-12-16T05:13:42.877Z,94137.9
2022-12-16T05:14:45.347Z,94143.7
2022-12-16T05:15:48.080Z,94143.4
2022-12-16T05:16:50.726Z,94141.4
2022-12-16T05:17:53.213Z,94143
2022-12-16T05:18:55.408Z,94145.9
2022-12-16T05:19:57.645Z,94144.8
2022-12-16T05:21:00.138Z,94145.6
2022-12-16T05:22:02.657Z,94144.3
2022-12-16T05:23:05.124Z,94144.5
2022-12-16T05:24:07.331Z,94144.3
2022-12-16T05:25:09.525Z,94144.7
2022-12-16T05:26:11.452Z,94140.2
2022-12-16T05:27:13.629Z,94141.6
2022-12-16T05:28:16.151Z,94138.4
2022-12-16T05:29:18.073Z,94140.5
2022-12-16T05:30:20.286Z,94149.7
2022-12-16T05:31:22.965Z,94152.2
2022-12-16T05:32:25.578Z,94149.2
2022-12-16T05:33:28.053Z,94149.7
2022-12-16T05:34:30.527Z,94153.3
2022-12-16T05:35:32.752Z,94154.3
2022-12-16T05:36:34.970Z,94153.2
2022-12-16T05:37:37.450Z,94153.8
2022-12-16T05:38:39.640Z,94149.5
2022-12-16T05:39:41.570Z,94152.2
2022-12-16T05:40:44.055Z,94148.1
2022-12-16T05:41:46.528Z,94158
2022-12-16T05:42:48.716Z,94156.5
2022-12-16T05:43:50.995Z,94157.8
2022-12-16T05:44:53.479Z,94159.9
2022-12-16T05:45:56.269Z,94164
2022-12-16T05:46:59.737Z,94163.3
2022-12-16T05:48:02.212Z,94164.1
2022-12-16T05:49:04.129Z,94169.2
2022-12-16T05:50:05.485Z,94169.5
2022-12-16T05:51:07.995Z,94173.3
2022-12-16T05:52:10.475Z,94173.6
2022-12-16T05:53:12.376Z,94177.7
2022-12-16T05:54:14.604Z,94180.6
2022-12-16T05:55:17.082Z,94181.7
2022-12-16T05:56:19.489Z,94183.2
2022-12-16T05:57:21.416Z,94189.1
2022-12-16T05:58:23.901Z,94193.7
2022-12-16T05:59:26.413Z,94194.5
2022-12-16T06:00:28.623Z,94196.8
2022-12-16T06:01:31.461Z,94193.7
2022-12-16T06:02:34.649Z,94191.5
2022-12-16T06:03:40.051Z,94198.9
2022-12-16T06:04:42.571Z,94199.2
2022-12-16T06:05:44.769Z,94199.2
2022-12-16T06:06:47.287Z,94192.1
2022-12-16T06:07:49.484Z,94195.1
2022-12-16T06:08:51.410Z,94197.1
2022-12-16T06:10:58.871Z,94197.6
2022-12-16T06:12:01.078Z,94203.7
2022-12-16T06:13:03.260Z,94201.8
2022-12-16T06:14:05.742Z,94209.1
2022-12-16T06:15:08.271Z,94212.8
2022-12-16T06:16:11.020Z,94208.3
2022-12-16T06:17:13.667Z,94213.6
2022-12-16T06:18:16.205Z,94216.3
2022-12-16T06:19:18.700Z,94217.8
2022-12-16T06:20:20.917Z,94210.6
2022-12-16T06:21:23.421Z,94211.9
2022-12-16T06:22:25.647Z,94213.1
2022-12-16T06:23:28.133Z,94210.2
2022-12-16T06:24:30.682Z,94216.7
2022-12-16T06:25:33.169Z,94220.8
2022-12-16T06:26:35.647Z,94224.2
2022-12-16T06:27:38.136Z,94226.3
2022-12-16T06:29:45.341Z,94225.6
2022-12-16T06:30:47.993Z,94231.4
2022-12-16T06:31:50.027Z,94234.6
2022-12-16T06:32:52.642Z,94237.1
2022-12-16T06:33:56.668Z,94238.7
2022-12-16T06:34:58.922Z,94236.3
2022-12-16T06:36:01.415Z,94240.5
2022-12-16T06:37:03.626Z,94246.1
2022-12-16T06:38:06.142Z,94248.7
2022-12-16T06:39:08.639Z,94253
2022-12-16T06:40:11.119Z,94255.3
2022-12-16T06:41:13.603Z,94252.8
2022-12-16T06:42:16.124Z,94254.4
2022-12-16T06:43:18.319Z,94254.4
2022-12-16T06:44:20.816Z,94253.1
2022-12-16T06:45:23.170Z,94251.1
2022-12-16T06:46:26.022Z,94252.5
2022-12-16T06:47:28.105Z,94250.4
2022-12-16T06:48:30.586Z,94256.2
2022-12-16T06:49:33.088Z,94258.7
2022-12-16T06:50:35.310Z,94260.5
2022-12-16T06:51:37.789Z,94258
2022-12-16T06:52:40.290Z,94265.4
2022-12-16T06:53:42.601Z,94268.4
2022-12-16T06:54:45.098Z,94269.2
2022-12-16T06:55:47.020Z,94273.4
2022-12-16T06:56:49.226Z,94272.8
2022-12-16T06:57:51.418Z,94277.7
2022-12-16T06:58:53.635Z,94279
2022-12-16T06:59:56.131Z,94280.9
2022-12-16T07:00:58.595Z,94278.8
2022-12-16T07:02:02.065Z,94279.8
2022-12-16T07:03:06.494Z,94286.1
2022-12-16T07:04:09.110Z,94287.2
2022-12-16T07:05:11.624Z,94290.8
2022-12-16T07:06:13.562Z,94292.4
2022-12-16T07:07:16.042Z,94295.8
2022-12-16T07:08:18.516Z,94294.6
2022-12-16T07:09:21.017Z,94296.9
2022-12-16T07:10:23.492Z,94298.3
2022-12-16T07:11:25.705Z,94301.8
2022-12-16T07:12:28.102Z,94304.9
2022-12-16T07:13:31.935Z,94310
2022-12-16T07:14:35.187Z,94311.3
2022-12-16T07:15:37.699Z,94311
2022-12-16T07:16:40.314Z,94317.9
2022-12-16T07:17:42.923Z,94315.6
2022-12-16T07:18:45.117Z,94319.5
2022-12-16T07:19:47.639Z,94319.5
2022-12-16T07:20:50.149Z,94323.6
2022-12-16T07:21:57.398Z,94325.4
2022-12-16T07:24:04.591Z,94324.4
2022-12-16T07:25:06.574Z,94323
2022-12-16T07:26:09.064Z,94319.9
2022-12-16T07:27:11.287Z,94322.8
2022-12-16T07:29:18.500Z,94326.3
2022-12-16T07:30:20.701Z,94326.1
2022-12-16T07:31:23.514Z,94330.8
2022-12-16T07:32:25.521Z,94334.2
2022-12-16T07:33:27.915Z,94337.6
2022-12-16T07:34:31.200Z,94343.9
2022-12-16T07:35:39.224Z,94344.7
2022-12-16T07:36:41.768Z,94344.7
2022-12-16T07:37:44.396Z,94346.2
2022-12-16T07:38:46.335Z,94349.3
2022-12-16T07:40:53.843Z,94349
2022-12-16T07:41:57.087Z,94350.2
2022-12-16T07:42:59.571Z,94353.7
2022-12-16T07:44:02.082Z,94357.5
2022-12-16T07:45:04.024Z,94355.9
2022-12-16T07:46:06.948Z,94357.5
2022-12-16T07:47:09.883Z,94359.8
2022-12-16T07:48:12.128Z,94360.8
2022-12-16T07:49:14.657Z,94363.4
2022-12-16T07:50:16.321Z,94369.7
2022-12-16T07:51:17.968Z,94368.1
2022-12-16T07:52:20.585Z,94366.9
2022-12-16T07:54:29.277Z,94373.8
2022-12-16T07:55:31.838Z,94379.3
2022-12-16T07:56:34.348Z,94375.5
2022-12-16T07:57:36.557Z,94374
2022-12-16T07:58:39.067Z,94383.1
2022-12-16T07:59:41.281Z,94380.7
2022-12-16T08:00:43.775Z,94383.5
2022-12-16T08:01:46.646Z,94383
2022-12-16T08:02:50.286Z,94388.7
2022-12-16T08:03:54.325Z,94386.4
2022-12-16T08:04:57.969Z,94389.7
2022-12-16T08:06:00.459Z,94391.3
2022-12-16T08:07:02.372Z,94391.8
2022-12-16T08:08:04.604Z,94397.1
2022-12-16T08:09:07.317Z,94389.3
2022-12-16T08:10:09.597Z,94389.8
2022-12-16T08:11:12.105Z,94393
2022-12-16T08:12:14.543Z,94393.2
2022-12-16T08:14:22.550Z,94396.1
2022-12-16T08:15:24.765Z,94401.1
2022-12-16T08:16:27.562Z,94401.3
2022-12-16T08:17:29.078Z,94404.3
2022-12-16T08:18:31.296Z,94409.5
2022-12-16T08:19:33.499Z,94411
2022-12-16T08:20:35.794Z,94410
2022-12-16T08:21:38.307Z,94413.4
2022-12-16T08:22:40.531Z,94409.8
2022-12-16T08:23:43.043Z,94410.7
2022-12-16T08:25:50.024Z,94419.9
2022-12-16T08:26:55.905Z,94414.5
2022-12-16T08:27:58.136Z,94411.8
2022-12-16T08:30:05.605Z,94420.6
2022-12-16T08:31:09.011Z,94417.8
2022-12-16T08:32:11.134Z,94419.7
2022-12-16T08:34:18.332Z,94430.1
2022-12-16T08:35:20.857Z,94428.2
2022-12-16T08:36:23.169Z,94431.2
2022-12-16T08:37:25.657Z,94430.3
2022-12-16T08:38:28.154Z,94436
2022-12-16T08:39:30.109Z,94433.2
2022-12-16T08:41:37.607Z,94438.2
2022-12-16T08:42:40.100Z,94436
2022-12-16T08:43:42.337Z,94439
2022-12-16T08:44:44.837Z,94443
2022-12-16T08:45:47.726Z,94442.9
2022-12-16T08:46:49.741Z,94443.2
2022-12-16T08:47:52.486Z,94443.4
2022-12-16T08:48:56.869Z,94450.4
2022-12-16T08:51:04.341Z,94454
2022-12-16T08:52:06.890Z,94452.5
2022-12-16T08:53:09.376Z,94447.5
2022-12-16T08:54:11.310Z,94451.4
2022-12-16T08:55:13.820Z,94454
2022-12-16T08:56:15.830Z,94455.5
2022-12-16T08:57:18.387Z,94459.1
2022-12-16T08:58:20.900Z,94450.2
2022-12-16T08:59:23.110Z,94456.8
2022-12-16T09:00:25.824Z,94456
2022-12-16T09:01:28.529Z,94457.4
2022-12-16T09:02:32.273Z,94465.2
2022-12-16T09:03:37.770Z,94461.8
2022-12-16T09:04:41.261Z,94462.9
2022-12-16T09:05:43.489Z,94462.1
2022-12-16T09:06:45.982Z,94469.7
2022-12-16T09:07:48.549Z,94462.7
2022-12-16T09:08:50.753Z,94466.9
2022-12-16T09:09:53.109Z,94468.2
2022-12-16T09:10:56.285Z,94470.7
2022-12-16T09:11:58.791Z,94474.4
2022-12-16T09:13:01.269Z,94475
2022-12-16T09:14:03.752Z,94480.1
2022-12-16T09:15:06.024Z,94479.5
2022-12-16T09:17:16.317Z,94478.9
2022-12-16T09:18:18.583Z,94489.4
2022-12-16T09:19:21.084Z,94488.9
2022-12-16T09:20:23.143Z,94489.7
2022-12-16T09:22:30.710Z,94496.6
2022-12-16T09:23:35.178Z,94497.2
2022-12-16T09:24:38.346Z,94496
2022-12-16T09:25:40.266Z,94499.1
2022-12-16T09:26:43.134Z,94504.8
2022-12-16T09:27:45.908Z,94503
2022-12-16T09:28:48.404Z,94501.6
2022-12-16T09:29:50.915Z,94504.3
2022-12-16T09:31:58.982Z,94504.7
2022-12-16T09:33:00.644Z,94503.5
2022-12-16T09:34:02.580Z,94511.6
2022-12-16T09:36:09.486Z,94512.7
2022-12-16T09:37:11.720Z,94515.1
2022-12-16T09:38:14.246Z,94515.4
2022-12-16T09:39:16.781Z,94519.8
2022-12-16T09:40:18.730Z,94519.7
2022-12-16T09:41:21.215Z,94522.5
2022-12-16T09:42:23.490Z,94521.9
2022-12-16T09:43:26.120Z,94521.8
2022-12-16T09:44:28.828Z,94522.7
2022-12-16T09:45:31.315Z,94520.8
2022-12-16T09:46:33.916Z,94530
2022-12-16T09:47:36.357Z,94531.7
2022-12-16T09:48:38.543Z,94529.2
2022-12-16T09:49:40.189Z,94531.1
2022-12-16T09:50:42.701Z,94533.7
2022-12-16T09:51:44.930Z,94533.8
2022-12-16T09:52:47.435Z,94531.1
2022-12-16T09:53:49.339Z,94531.4
2022-12-16T09:54:53.736Z,94535.9
2022-12-16T09:55:57.779Z,94538.2
2022-12-16T09:57:00.010Z,94533.1
2022-12-16T09:58:02.248Z,94536.8
2022-12-16T09:59:04.786Z,94540.8
2022-12-16T10:00:07.284Z,94540
2022-12-16T10:01:09.942Z,94541.3
2022-12-16T10:02:13.327Z,94544.5
2022-12-16T10:03:17.302Z,94545.3
2022-12-16T10:04:20.579Z,94545.4
2022-12-16T10:05:23.187Z,94543.6
2022-12-16T10:06:25.683Z,94549
2022-12-16T10:07:27.758Z,94546.6
2022-12-16T10:08:29.703Z,94549.9
2022-12-16T10:09:31.923Z,94545.7
2022-12-16T10:10:34.450Z,94549.1
2022-12-16T10:11:36.937Z,94547.8
2022-12-16T10:12:39.143Z,94545.7
2022-12-16T10:13:41.744Z,94546.7
2022-12-16T10:14:44.264Z,94545.2
2022-12-16T10:15:47.106Z,94546.9
2022-12-16T10:16:49.716Z,94548.9
2022-12-16T10:17:53.208Z,94545.3
2022-12-16T10:18:57.649Z,94550
2022-12-16T10:21:07.441Z,94557.5
2022-12-16T10:22:09.803Z,94557.2
2022-12-16T10:23:12.025Z,94554.2
2022-12-16T10:24:14.224Z,94559.8
2022-12-16T10:26:21.778Z,94560.2
2022-12-16T10:27:23.831Z,94559.9
2022-12-16T10:28:26.326Z,94562.7
2022-12-16T10:29:28.903Z,94561.4
2022-12-16T10:30:31.141Z,94563.1
2022-12-16T10:31:34.039Z,94559.4
2022-12-16T10:32:36.605Z,94561.9
2022-12-16T10:33:38.992Z,94564.9
2022-12-16T10:34:40.924Z,94568.2
2022-12-16T10:35:42.593Z,94569
2022-12-16T10:36:45.080Z,94567.6
2022-12-16T10:37:47.561Z,94565.8
2022-12-16T10:38:50.068Z,94565.4
2022-12-16T10:39:56.792Z,94567.2
2022-12-16T10:40:59.007Z,94571.2
2022-12-16T10:42:01.529Z,94573
2022-12-16T10:43:04.019Z,94568.7
2022-12-16T10:44:06.135Z,94568.6
2022-12-16T10:45:09.453Z,94568.4
2022-12-16T10:46:12.363Z,94566.8
2022-12-16T10:47:15.038Z,94562.4
2022-12-16T10:48:17.569Z,94564.3
2022-12-16T10:49:20.385Z,94570.6
2022-12-16T10:50:22.406Z,94567.7
2022-12-16T10:51:24.894Z,94569.4
2022-12-16T10:52:27.379Z,94572.7
2022-12-16T10:53:29.706Z,94574.3
2022-12-16T10:54:32.649Z,94570.9
2022-12-16T10:55:34.865Z,94575.8
2022-12-16T10:56:36.799Z,94576.1
2022-12-16T10:57:39.542Z,94573
2022-12-16T10:58:41.471Z,94573.5
2022-12-16T10:59:43.671Z,94575.4
2022-12-16T11:00:45.882Z,94577.1
2022-12-16T11:01:49.117Z,94580
2022-12-16T11:02:53.224Z,94577.6
2022-12-16T11:03:56.598Z,94581.4
2022-12-16T11:04:59.276Z,94582.8
2022-12-16T11:06:01.762Z,94582
2022-12-16T11:07:03.997Z,94581.4
2022-12-16T11:08:06.214Z,94582.2
2022-12-16T11:09:08.434Z,94584
2022-12-16T11:10:10.409Z,94581.6
2022-12-16T11:11:12.911Z,94585.5
2022-12-16T11:12:15.137Z,94587.6
2022-12-16T11:13:17.662Z,94587.3
2022-12-16T11:14:19.871Z,94590.2
2022-12-16T11:16:27.216Z,94586.8
2022-12-16T11:17:29.908Z,94583.8
2022-12-16T11:18:32.142Z,94586.8
2022-12-16T11:19:34.624Z,94587.6
2022-12-16T11:20:37.169Z,94589.7
2022-12-16T11:21:39.395Z,94587.8
2022-12-16T11:22:41.601Z,94589.2
2022-12-16T11:23:42.995Z,94595
2022-12-16T11:24:44.636Z,94594.6
2022-12-16T11:25:47.110Z,94600.2
2022-12-16T11:26:49.612Z,94594.6
2022-12-16T11:27:51.821Z,94599.3
2022-12-16T11:28:54.507Z,94605.6
2022-12-16T11:29:57.601Z,94605
2022-12-16T11:31:00.657Z,94602.5
2022-12-16T11:32:03.539Z,94601.6
2022-12-16T11:33:06.181Z,94598.9
2022-12-16T11:34:08.111Z,94592.7
2022-12-16T11:35:11.534Z,94591.6
2022-12-16T11:36:14.116Z,94592.7
2022-12-16T11:38:21.307Z,94594.1
2022-12-16T11:39:23.524Z,94596.5
2022-12-16T11:40:25.744Z,94600.5
2022-12-16T11:41:27.674Z,94598.6
2022-12-16T11:42:29.911Z,94597.5
2022-12-16T11:43:34.024Z,94595.9
2022-12-16T11:44:37.351Z,94597.1
2022-12-16T11:45:39.589Z,94599.5
2022-12-16T11:46:42.140Z,94594.9
2022-12-16T11:47:44.565Z,94594.1
2022-12-16T11:48:46.796Z,94597.3
2022-12-16T11:49:49.301Z,94592.5
2022-12-16T11:50:53.296Z,94596.8
2022-12-16T11:53:02.943Z,94591.1
2022-12-16T11:54:05.515Z,94593.5
2022-12-16T11:55:09.145Z,94594.3
2022-12-16T11:57:16.175Z,94603.6
2022-12-16T11:58:18.404Z,94603.6
2022-12-16T11:59:20.608Z,94602.3
2022-12-16T12:00:23.155Z,94607.4
2022-12-16T12:01:25.828Z,94606.9
2022-12-16T12:02:28.012Z,94606.7
2022-12-16T12:03:32.345Z,94609.4
2022-12-16T12:04:35.991Z,94608.8
2022-12-16T12:05:38.420Z,94609.8
2022-12-16T12:06:40.900Z,94608.1
2022-12-16T12:08:47.953Z,94611.2
2022-12-16T12:09:50.491Z,94611.5
2022-12-16T12:12:00.026Z,94612.5
2022-12-16T12:13:02.511Z,94610.6
2022-12-16T12:14:04.472Z,94611
2022-12-16T12:15:07.055Z,94611.7
2022-12-16T12:16:09.958Z,94611.6
2022-12-16T12:17:12.369Z,94609.3
2022-12-16T12:18:14.872Z,94613.7
2022-12-16T12:19:17.123Z,94619.3
2022-12-16T12:20:19.642Z,94625.1
2022-12-16T12:21:22.148Z,94625.8
2022-12-16T12:22:24.359Z,94627.5
2022-12-16T12:23:26.709Z,94626.3
2022-12-16T12:24:28.915Z,94626.6
2022-12-16T12:25:31.121Z,94624.7
2022-12-16T12:26:33.335Z,94619.9
2022-12-16T12:27:35.537Z,94621.8
2022-12-16T12:28:38.026Z,94620.3
2022-12-16T12:29:40.504Z,94618.8
2022-12-16T12:30:42.425Z,94622.5
2022-12-16T12:31:45.542Z,94621.1
2022-12-16T12:32:47.669Z,94620.3
2022-12-16T12:33:50.001Z,94623.8
2022-12-16T12:34:54.903Z,94626.2
2022-12-16T12:35:58.501Z,94627.5
2022-12-16T12:37:01.002Z,94627.2
2022-12-16T12:38:03.223Z,94629
2022-12-16T12:39:05.739Z,94632.1
2022-12-16T12:40:08.225Z,94635.2
2022-12-16T12:41:10.748Z,94636.2
2022-12-16T12:42:12.973Z,94634.7
2022-12-16T12:43:14.914Z,94636.8
2022-12-16T12:44:17.401Z,94638.4
2022-12-16T12:45:19.394Z,94639.2
2022-12-16T12:46:21.864Z,94644.1
2022-12-16T12:47:24.460Z,94642.1
2022-12-16T12:48:26.398Z,94640.3
2022-12-16T12:49:28.631Z,94640.2
2022-12-16T12:50:30.926Z,94640.9
2022-12-16T12:51:32.906Z,94640.7
2022-12-16T12:52:35.322Z,94639.7
2022-12-16T12:53:37.484Z,94641.8
2022-12-16T12:54:39.769Z,94644.4
2022-12-16T12:55:42.255Z,94643.1
2022-12-16T12:56:44.179Z,94646
2022-12-16T12:57:46.372Z,94644.7
2022-12-16T12:58:48.040Z,94644.7
2022-12-16T12:59:51.640Z,94651.9
2022-12-16T13:00:58.211Z,94651.6
2022-12-16T13:02:01.997Z,94653.6
2022-12-16T13:03:05.797Z,94651.2
2022-12-16T13:04:09.571Z,94658.9
2022-12-16T13:05:11.818Z,94657.6
2022-12-16T13:06:13.781Z,94663.1
2022-12-16T13:07:16.501Z,94664.2
2022-12-16T13:08:18.990Z,94661.9
2022-12-16T13:09:21.183Z,94664.3
2022-12-16T13:10:24.001Z,94662.2
2022-12-16T13:12:30.740Z,94665.5
2022-12-16T13:13:35.317Z,94661.1
2022-12-16T13:14:39.036Z,94662.4
2022-12-16T13:15:41.250Z,94670
2022-12-16T13:16:43.408Z,94667.9